sensor_id;sensor_type;location;lat;lon;timestamp;temperature;humidity
54832;DHT22;40730;53.068;6.572;2023-06-10T10:35:41;27.00;63.10
54832;DHT22;40730;53.068;6.572;2023-06-10T10:38:07;27.60;60.70
54832;DHT22;40730;53.068;6.572;2023-06-10T10:40:33;28.10;60.40
54832;DHT22;40730;53.068;6.572;2023-06-10T10:43:00;28.40;59.10
54832;DHT22;40730;53.068;6.572;2023-06-10T10:45:28;28.20;57.70
54832;DHT22;40730;53.068;6.572;2023-06-10T10:47:55;27.90;57.50
54832;DHT22;40730;53.068;6.572;2023-06-10T10:50:22;27.70;56.10
54832;DHT22;40730;53.068;6.572;2023-06-10T10:55:20;28.50;54.80
54832;DHT22;40730;53.068;6.572;2023-06-10T10:58:11;28.90;54.80
54832;DHT22;40730;53.068;6.572;2023-06-10T11:00:45;28.90;55.90
54832;DHT22;40730;53.068;6.572;2023-06-10T11:03:16;28.70;57.60
54832;DHT22;40730;53.068;6.572;2023-06-10T11:05:47;28.50;56.60
54832;DHT22;40730;53.068;6.572;2023-06-10T11:08:15;29.30;54.70
54832;DHT22;40730;53.068;6.572;2023-06-10T11:10:50;29.60;57.00
54832;DHT22;40730;53.068;6.572;2023-06-10T11:13:20;29.20;57.60
54832;DHT22;40730;53.068;6.572;2023-06-10T11:15:47;29.10;56.80
54832;DHT22;40730;53.068;6.572;2023-06-10T11:18:26;29.50;56.30
54832;DHT22;40730;53.068;6.572;2023-06-10T11:21:02;29.60;53.50
54832;DHT22;40730;53.068;6.572;2023-06-10T11:31:20;29.00;55.50
54832;DHT22;40730;53.068;6.572;2023-06-10T11:36:21;28.80;56.30
54832;DHT22;40730;53.068;6.572;2023-06-10T11:38:48;27.80;56.60
54832;DHT22;40730;53.068;6.572;2023-06-10T11:41:14;27.90;58.00
54832;DHT22;40730;53.068;6.572;2023-06-10T11:43:44;27.70;58.40
54832;DHT22;40730;53.068;6.572;2023-06-10T11:46:17;27.90;57.00
54832;DHT22;40730;53.068;6.572;2023-06-10T11:48:53;28.10;57.50
54832;DHT22;40730;53.068;6.572;2023-06-10T11:51:19;28.00;57.50
54832;DHT22;40730;53.068;6.572;2023-06-10T11:53:48;28.00;59.40
54832;DHT22;40730;53.068;6.572;2023-06-10T11:56:22;28.50;58.70
54832;DHT22;40730;53.068;6.572;2023-06-10T11:58:59;29.00;57.60
54832;DHT22;40730;53.068;6.572;2023-06-10T12:01:30;29.10;56.50
54832;DHT22;40730;53.068;6.572;2023-06-10T12:03:59;28.80;56.20
54832;DHT22;40730;53.068;6.572;2023-06-10T12:06:26;28.40;55.40
54832;DHT22;40730;53.068;6.572;2023-06-10T12:08:53;28.60;55.90
54832;DHT22;40730;53.068;6.572;2023-06-10T12:11:21;28.80;55.80
54832;DHT22;40730;53.068;6.572;2023-06-10T12:13:49;28.90;55.70
54832;DHT22;40730;53.068;6.572;2023-06-10T12:16:16;28.60;55.70
54832;DHT22;40730;53.068;6.572;2023-06-10T12:18:45;28.60;55.60
54832;DHT22;40730;53.068;6.572;2023-06-10T12:21:18;29.30;55.40
54832;DHT22;40730;53.068;6.572;2023-06-10T12:26:38;29.70;54.90
54832;DHT22;40730;53.068;6.572;2023-06-10T12:29:21;29.60;54.10
54832;DHT22;40730;53.068;6.572;2023-06-10T12:32:03;29.80;54.50
54832;DHT22;40730;53.068;6.572;2023-06-10T12:34:36;30.20;53.60
54832;DHT22;40730;53.068;6.572;2023-06-10T12:37:29;29.90;51.60
54832;DHT22;40730;53.068;6.572;2023-06-10T12:40:02;30.00;52.90
54832;DHT22;40730;53.068;6.572;2023-06-10T12:42:29;29.90;52.30
54832;DHT22;40730;53.068;6.572;2023-06-10T12:44:56;29.50;52.50
54832;DHT22;40730;53.068;6.572;2023-06-10T12:47:36;29.40;53.40
54832;DHT22;40730;53.068;6.572;2023-06-10T12:50:04;29.60;52.60
54832;DHT22;40730;53.068;6.572;2023-06-10T12:52:30;29.80;53.30
54832;DHT22;40730;53.068;6.572;2023-06-10T12:54:56;29.40;53.50
54832;DHT22;40730;53.068;6.572;2023-06-10T12:57:22;29.70;53.60
54832;DHT22;40730;53.068;6.572;2023-06-10T12:59:48;30.30;52.60
54832;DHT22;40730;53.068;6.572;2023-06-10T13:02:20;29.80;52.90
54832;DHT22;40730;53.068;6.572;2023-06-10T13:04:49;29.90;52.80
54832;DHT22;40730;53.068;6.572;2023-06-10T13:07:15;30.00;52.70
54832;DHT22;40730;53.068;6.572;2023-06-10T13:09:41;30.10;53.30
54832;DHT22;40730;53.068;6.572;2023-06-10T13:12:07;30.50;52.80
54832;DHT22;40730;53.068;6.572;2023-06-10T13:14:37;30.10;52.50
54832;DHT22;40730;53.068;6.572;2023-06-10T13:17:04;29.60;52.90
54832;DHT22;40730;53.068;6.572;2023-06-10T13:19:31;29.40;53.70
54832;DHT22;40730;53.068;6.572;2023-06-10T13:21:57;28.70;54.30
54832;DHT22;40730;53.068;6.572;2023-06-10T13:24:23;28.30;55.40
54832;DHT22;40730;53.068;6.572;2023-06-10T13:26:49;28.00;56.20
54832;DHT22;40730;53.068;6.572;2023-06-10T13:29:14;27.60;55.40
54832;DHT22;40730;53.068;6.572;2023-06-10T13:31:40;27.10;56.70
54832;DHT22;40730;53.068;6.572;2023-06-10T13:34:06;26.80;57.70
54832;DHT22;40730;53.068;6.572;2023-06-10T13:36:32;26.70;58.00
54832;DHT22;40730;53.068;6.572;2023-06-10T13:38:58;26.60;58.40
54832;DHT22;40730;53.068;6.572;2023-06-10T13:41:23;26.60;58.80
54832;DHT22;40730;53.068;6.572;2023-06-10T13:43:50;26.40;59.50
54832;DHT22;40730;53.068;6.572;2023-06-10T13:46:15;26.20;59.80
54832;DHT22;40730;53.068;6.572;2023-06-10T13:48:41;26.10;60.50
54832;DHT22;40730;53.068;6.572;2023-06-10T13:51:07;26.10;61.40
54832;DHT22;40730;53.068;6.572;2023-06-10T13:53:37;26.20;61.10
54832;DHT22;40730;53.068;6.572;2023-06-10T13:56:03;26.30;61.50
54832;DHT22;40730;53.068;6.572;2023-06-10T13:58:28;26.10;61.60
54832;DHT22;40730;53.068;6.572;2023-06-10T14:00:54;26.30;61.40
54832;DHT22;40730;53.068;6.572;2023-06-10T14:03:19;26.30;60.90
54832;DHT22;40730;53.068;6.572;2023-06-10T14:05:45;26.40;60.30
54832;DHT22;40730;53.068;6.572;2023-06-10T14:11:32;26.10;59.60
54832;DHT22;40730;53.068;6.572;2023-06-10T14:13:58;26.00;60.70
54832;DHT22;40730;53.068;6.572;2023-06-10T14:16:26;26.00;61.80
54832;DHT22;40730;53.068;6.572;2023-06-10T14:18:52;26.10;61.90
54832;DHT22;40730;53.068;6.572;2023-06-10T14:21:19;26.10;62.20
54832;DHT22;40730;53.068;6.572;2023-06-10T14:23:45;26.30;62.40
54832;DHT22;40730;53.068;6.572;2023-06-10T14:26:14;26.40;62.90
54832;DHT22;40730;53.068;6.572;2023-06-10T14:28:40;26.50;64.00
54832;DHT22;40730;53.068;6.572;2023-06-10T14:31:05;26.30;64.20
54832;DHT22;40730;53.068;6.572;2023-06-10T14:33:32;26.20;63.40
54832;DHT22;40730;53.068;6.572;2023-06-10T14:35:58;26.00;63.00
54832;DHT22;40730;53.068;6.572;2023-06-10T14:38:24;26.00;64.60
54832;DHT22;40730;53.068;6.572;2023-06-10T14:40:49;26.00;62.70
54832;DHT22;40730;53.068;6.572;2023-06-10T14:43:15;25.90;62.70
54832;DHT22;40730;53.068;6.572;2023-06-10T14:45:41;26.10;62.90
54832;DHT22;40730;53.068;6.572;2023-06-10T14:48:07;25.90;60.00
54832;DHT22;40730;53.068;6.572;2023-06-10T14:50:37;26.00;60.40
54832;DHT22;40730;53.068;6.572;2023-06-10T14:53:03;26.10;60.50
54832;DHT22;40730;53.068;6.572;2023-06-10T14:55:31;26.00;58.40
54832;DHT22;40730;53.068;6.572;2023-06-10T14:57:57;26.10;58.10
54832;DHT22;40730;53.068;6.572;2023-06-10T15:00:23;26.20;57.30
54832;DHT22;40730;53.068;6.572;2023-06-10T15:02:51;26.20;56.60
54832;DHT22;40730;53.068;6.572;2023-06-10T15:05:17;26.30;57.60
54832;DHT22;40730;53.068;6.572;2023-06-10T15:07:44;26.30;58.00
54832;DHT22;40730;53.068;6.572;2023-06-10T15:10:10;26.30;57.10
54832;DHT22;40730;53.068;6.572;2023-06-10T15:12:36;26.30;56.40
54832;DHT22;40730;53.068;6.572;2023-06-10T15:15:02;26.20;56.70
54832;DHT22;40730;53.068;6.572;2023-06-10T15:17:28;26.10;57.90
54832;DHT22;40730;53.068;6.572;2023-06-10T15:19:54;26.10;58.70
54832;DHT22;40730;53.068;6.572;2023-06-10T15:22:20;26.10;57.90
54832;DHT22;40730;53.068;6.572;2023-06-10T15:24:46;26.00;57.40
54832;DHT22;40730;53.068;6.572;2023-06-10T15:27:11;26.00;57.50
54832;DHT22;40730;53.068;6.572;2023-06-10T15:29:37;26.00;57.40
54832;DHT22;40730;53.068;6.572;2023-06-10T15:32:03;25.90;57.00
54832;DHT22;40730;53.068;6.572;2023-06-10T15:34:28;26.00;57.50
54832;DHT22;40730;53.068;6.572;2023-06-10T15:36:54;26.00;57.70
54832;DHT22;40730;53.068;6.572;2023-06-10T15:39:20;26.00;57.90
54832;DHT22;40730;53.068;6.572;2023-06-10T15:41:45;26.00;58.00
54832;DHT22;40730;53.068;6.572;2023-06-10T15:44:12;26.00;58.70
54832;DHT22;40730;53.068;6.572;2023-06-10T15:46:41;26.00;58.40
54832;DHT22;40730;53.068;6.572;2023-06-10T15:49:15;26.00;57.80
54832;DHT22;40730;53.068;6.572;2023-06-10T15:51:41;26.00;58.10
54832;DHT22;40730;53.068;6.572;2023-06-10T16:01:36;26.00;58.30
54832;DHT22;40730;53.068;6.572;2023-06-10T16:04:02;25.90;58.40
54832;DHT22;40730;53.068;6.572;2023-06-10T16:06:27;25.90;58.60
54832;DHT22;40730;53.068;6.572;2023-06-10T16:08:53;25.90;58.90
54832;DHT22;40730;53.068;6.572;2023-06-10T16:11:18;25.90;59.10
54832;DHT22;40730;53.068;6.572;2023-06-10T16:13:44;25.90;58.50
54832;DHT22;40730;53.068;6.572;2023-06-10T16:16:10;25.80;59.20
54832;DHT22;40730;53.068;6.572;2023-06-10T16:18:35;25.80;59.10
54832;DHT22;40730;53.068;6.572;2023-06-10T16:21:01;25.80;59.50
54832;DHT22;40730;53.068;6.572;2023-06-10T16:23:26;25.80;59.30
54832;DHT22;40730;53.068;6.572;2023-06-10T16:25:52;25.70;59.30
54832;DHT22;40730;53.068;6.572;2023-06-10T16:28:18;25.70;59.50
54832;DHT22;40730;53.068;6.572;2023-06-10T16:30:43;25.60;60.40
54832;DHT22;40730;53.068;6.572;2023-06-10T16:33:09;25.60;60.70
54832;DHT22;40730;53.068;6.572;2023-06-10T16:35:37;25.60;61.00
54832;DHT22;40730;53.068;6.572;2023-06-10T16:38:03;25.60;61.00
54832;DHT22;40730;53.068;6.572;2023-06-10T16:40:29;25.60;61.30
54832;DHT22;40730;53.068;6.572;2023-06-10T16:42:55;25.60;61.90
54832;DHT22;40730;53.068;6.572;2023-06-10T16:45:20;25.60;62.10
54832;DHT22;40730;53.068;6.572;2023-06-10T16:47:46;25.60;62.40
54832;DHT22;40730;53.068;6.572;2023-06-10T16:50:11;25.60;62.50
54832;DHT22;40730;53.068;6.572;2023-06-10T16:52:40;25.50;62.70
54832;DHT22;40730;53.068;6.572;2023-06-10T16:55:05;25.50;63.00
54832;DHT22;40730;53.068;6.572;2023-06-10T16:57:31;25.40;63.60
54832;DHT22;40730;53.068;6.572;2023-06-10T16:59:57;25.40;63.60
54832;DHT22;40730;53.068;6.572;2023-06-10T17:02:23;25.40;63.40
54832;DHT22;40730;53.068;6.572;2023-06-10T17:04:48;25.40;63.40
54832;DHT22;40730;53.068;6.572;2023-06-10T17:07:14;25.50;63.70
54832;DHT22;40730;53.068;6.572;2023-06-10T17:09:41;25.50;63.70
54832;DHT22;40730;53.068;6.572;2023-06-10T17:12:07;25.40;63.70
54832;DHT22;40730;53.068;6.572;2023-06-10T17:14:33;25.40;63.70
54832;DHT22;40730;53.068;6.572;2023-06-10T17:16:59;25.40;63.80
54832;DHT22;40730;53.068;6.572;2023-06-10T17:19:26;25.30;63.60
54832;DHT22;40730;53.068;6.572;2023-06-10T17:22:09;25.40;64.00
54832;DHT22;40730;53.068;6.572;2023-06-10T17:24:35;25.40;63.90
54832;DHT22;40730;53.068;6.572;2023-06-10T17:27:00;25.40;63.60
54832;DHT22;40730;53.068;6.572;2023-06-10T17:29:26;25.40;62.70
54832;DHT22;40730;53.068;6.572;2023-06-10T17:31:51;25.30;62.30
54832;DHT22;40730;53.068;6.572;2023-06-10T17:34:17;25.30;62.20
54832;DHT22;40730;53.068;6.572;2023-06-10T17:36:44;25.30;62.50
54832;DHT22;40730;53.068;6.572;2023-06-10T17:39:43;25.30;62.50
54832;DHT22;40730;53.068;6.572;2023-06-10T17:42:26;25.10;62.50
54832;DHT22;40730;53.068;6.572;2023-06-10T17:44:56;25.10;63.10
54832;DHT22;40730;53.068;6.572;2023-06-10T17:47:22;25.10;63.50
54832;DHT22;40730;53.068;6.572;2023-06-10T17:49:47;25.10;63.60
54832;DHT22;40730;53.068;6.572;2023-06-10T17:52:13;25.10;63.60
54832;DHT22;40730;53.068;6.572;2023-06-10T17:54:38;25.10;63.90
54832;DHT22;40730;53.068;6.572;2023-06-10T17:57:04;25.00;63.50
54832;DHT22;40730;53.068;6.572;2023-06-10T17:59:30;25.00;63.40
54832;DHT22;40730;53.068;6.572;2023-06-10T18:01:56;25.00;63.50
54832;DHT22;40730;53.068;6.572;2023-06-10T18:04:22;25.00;63.80
54832;DHT22;40730;53.068;6.572;2023-06-10T18:06:48;25.00;63.00
54832;DHT22;40730;53.068;6.572;2023-06-10T18:09:13;24.90;63.10
54832;DHT22;40730;53.068;6.572;2023-06-10T18:11:39;24.90;64.50
54832;DHT22;40730;53.068;6.572;2023-06-10T18:14:05;25.10;66.70
54832;DHT22;40730;53.068;6.572;2023-06-10T18:16:30;24.80;68.10
54832;DHT22;40730;53.068;6.572;2023-06-10T18:18:56;24.70;70.20
54832;DHT22;40730;53.068;6.572;2023-06-10T18:21:22;24.60;73.10
54832;DHT22;40730;53.068;6.572;2023-06-10T18:23:47;24.60;76.10
54832;DHT22;40730;53.068;6.572;2023-06-10T18:26:13;24.50;83.30
54832;DHT22;40730;53.068;6.572;2023-06-10T18:28:39;24.40;91.90
54832;DHT22;40730;53.068;6.572;2023-06-10T18:31:04;24.30;95.30
54832;DHT22;40730;53.068;6.572;2023-06-10T18:33:30;24.20;96.70
54832;DHT22;40730;53.068;6.572;2023-06-10T18:35:56;24.20;97.50
54832;DHT22;40730;53.068;6.572;2023-06-10T18:38:23;24.10;98.20
54832;DHT22;40730;53.068;6.572;2023-06-10T18:41:12;24.00;99.00
54832;DHT22;40730;53.068;6.572;2023-06-10T18:43:42;23.90;99.70
54832;DHT22;40730;53.068;6.572;2023-06-10T18:46:09;23.80;99.90
54832;DHT22;40730;53.068;6.572;2023-06-10T18:48:41;23.60;99.90
54832;DHT22;40730;53.068;6.572;2023-06-10T18:51:21;23.50;99.90
54832;DHT22;40730;53.068;6.572;2023-06-10T18:54:26;23.50;99.90
54832;DHT22;40730;53.068;6.572;2023-06-10T18:57:14;23.40;99.90
54832;DHT22;40730;53.068;6.572;2023-06-10T18:59:43;23.60;99.90
54832;DHT22;40730;53.068;6.572;2023-06-10T19:02:12;23.20;99.90
54832;DHT22;40730;53.068;6.572;2023-06-10T19:05:05;23.10;99.90
54832;DHT22;40730;53.068;6.572;2023-06-10T19:07:57;23.00;99.90
54832;DHT22;40730;53.068;6.572;2023-06-10T19:10:38;22.90;99.90
54832;DHT22;40730;53.068;6.572;2023-06-10T19:13:35;23.00;99.90
54832;DHT22;40730;53.068;6.572;2023-06-10T19:16:37;22.60;99.90
54832;DHT22;40730;53.068;6.572;2023-06-10T19:19:18;22.60;99.90
54832;DHT22;40730;53.068;6.572;2023-06-10T19:22:21;22.50;99.90
54832;DHT22;40730;53.068;6.572;2023-06-10T19:25:14;22.40;99.90
54832;DHT22;40730;53.068;6.572;2023-06-10T19:27:54;22.30;99.90
54832;DHT22;40730;53.068;6.572;2023-06-10T19:30:55;22.30;99.90
54832;DHT22;40730;53.068;6.572;2023-06-10T19:33:39;22.20;99.90
54832;DHT22;40730;53.068;6.572;2023-06-10T19:36:14;21.90;99.90
54832;DHT22;40730;53.068;6.572;2023-06-10T19:38:54;22.00;99.90
54832;DHT22;40730;53.068;6.572;2023-06-10T19:41:39;21.80;99.90
54832;DHT22;40730;53.068;6.572;2023-06-10T19:44:33;21.70;99.90
54832;DHT22;40730;53.068;6.572;2023-06-10T19:47:14;21.60;99.90
54832;DHT22;40730;53.068;6.572;2023-06-10T19:50:25;21.60;99.90
54832;DHT22;40730;53.068;6.572;2023-06-10T19:53:00;21.50;99.90
54832;DHT22;40730;53.068;6.572;2023-06-10T19:55:47;21.10;99.90
54832;DHT22;40730;53.068;6.572;2023-06-10T19:58:18;21.30;99.90
54832;DHT22;40730;53.068;6.572;2023-06-10T20:01:03;21.20;99.90
54832;DHT22;40730;53.068;6.572;2023-06-10T20:03:33;21.10;99.90
54832;DHT22;40730;53.068;6.572;2023-06-10T20:06:18;21.00;99.90
54832;DHT22;40730;53.068;6.572;2023-06-10T20:09:09;20.80;99.90
54832;DHT22;40730;53.068;6.572;2023-06-10T20:11:41;20.90;99.90
54832;DHT22;40730;53.068;6.572;2023-06-10T20:14:17;20.60;99.90
54832;DHT22;40730;53.068;6.572;2023-06-10T20:16:57;20.70;99.90
54832;DHT22;40730;53.068;6.572;2023-06-10T20:19:36;20.70;99.90
54832;DHT22;40730;53.068;6.572;2023-06-10T20:22:01;20.50;99.90
54832;DHT22;40730;53.068;6.572;2023-06-10T20:24:30;20.60;99.90
54832;DHT22;40730;53.068;6.572;2023-06-10T20:26:56;20.50;99.90
54832;DHT22;40730;53.068;6.572;2023-06-10T20:29:22;20.50;99.90
54832;DHT22;40730;53.068;6.572;2023-06-10T20:31:47;20.30;99.90
54832;DHT22;40730;53.068;6.572;2023-06-10T20:34:13;20.30;99.90
54832;DHT22;40730;53.068;6.572;2023-06-10T20:36:39;20.40;99.90
54832;DHT22;40730;53.068;6.572;2023-06-10T20:39:04;20.20;99.90
54832;DHT22;40730;53.068;6.572;2023-06-10T20:41:30;20.20;99.90
54832;DHT22;40730;53.068;6.572;2023-06-10T20:43:56;20.10;99.90
54832;DHT22;40730;53.068;6.572;2023-06-10T20:46:22;20.10;99.90
54832;DHT22;40730;53.068;6.572;2023-06-10T20:48:48;20.00;99.90
54832;DHT22;40730;53.068;6.572;2023-06-10T20:51:13;20.20;99.90
54832;DHT22;40730;53.068;6.572;2023-06-10T20:53:39;19.90;99.90
54832;DHT22;40730;53.068;6.572;2023-06-10T20:56:05;19.90;99.90
54832;DHT22;40730;53.068;6.572;2023-06-10T20:58:30;19.90;99.90
54832;DHT22;40730;53.068;6.572;2023-06-10T21:00:56;19.90;99.90
54832;DHT22;40730;53.068;6.572;2023-06-10T21:03:22;19.80;99.90
54832;DHT22;40730;53.068;6.572;2023-06-10T21:05:47;19.80;99.90
54832;DHT22;40730;53.068;6.572;2023-06-10T21:08:13;19.80;99.90
54832;DHT22;40730;53.068;6.572;2023-06-10T21:10:39;19.80;99.90
54832;DHT22;40730;53.068;6.572;2023-06-10T21:13:05;19.70;99.90
54832;DHT22;40730;53.068;6.572;2023-06-10T21:15:31;19.70;99.90
54832;DHT22;40730;53.068;6.572;2023-06-10T21:17:56;19.70;99.90
54832;DHT22;40730;53.068;6.572;2023-06-10T21:20:22;19.60;99.90
54832;DHT22;40730;53.068;6.572;2023-06-10T21:22:47;19.60;99.90
54832;DHT22;40730;53.068;6.572;2023-06-10T21:25:13;19.50;99.90
54832;DHT22;40730;53.068;6.572;2023-06-10T21:27:39;19.50;99.90
54832;DHT22;40730;53.068;6.572;2023-06-10T21:30:05;19.50;99.90
54832;DHT22;40730;53.068;6.572;2023-06-10T21:32:31;19.40;99.90
54832;DHT22;40730;53.068;6.572;2023-06-10T21:34:57;19.50;99.90
54832;DHT22;40730;53.068;6.572;2023-06-10T21:37:22;19.50;99.90
54832;DHT22;40730;53.068;6.572;2023-06-10T21:39:48;19.30;99.90
54832;DHT22;40730;53.068;6.572;2023-06-10T21:42:13;19.30;99.90
54832;DHT22;40730;53.068;6.572;2023-06-10T21:44:39;19.20;99.90
54832;DHT22;40730;53.068;6.572;2023-06-10T21:47:05;19.20;99.90
54832;DHT22;40730;53.068;6.572;2023-06-10T21:49:31;19.20;99.90
54832;DHT22;40730;53.068;6.572;2023-06-10T21:51:57;19.10;99.90
54832;DHT22;40730;53.068;6.572;2023-06-10T21:54:23;19.10;99.90
54832;DHT22;40730;53.068;6.572;2023-06-10T21:56:48;19.10;99.90
54832;DHT22;40730;53.068;6.572;2023-06-10T21:59:14;19.10;99.90
54832;DHT22;40730;53.068;6.572;2023-06-10T22:01:40;19.00;99.90
54832;DHT22;40730;53.068;6.572;2023-06-10T22:04:05;19.00;99.90
54832;DHT22;40730;53.068;6.572;2023-06-10T22:06:31;18.80;99.90
54832;DHT22;40730;53.068;6.572;2023-06-10T22:09:00;18.80;99.90
54832;DHT22;40730;53.068;6.572;2023-06-10T22:11:26;19.00;99.90
54832;DHT22;40730;53.068;6.572;2023-06-10T22:13:52;18.60;99.90
54832;DHT22;40730;53.068;6.572;2023-06-10T22:16:18;18.60;99.90
54832;DHT22;40730;53.068;6.572;2023-06-10T22:18:44;18.60;99.90
54832;DHT22;40730;53.068;6.572;2023-06-10T22:21:10;18.50;99.90
54832;DHT22;40730;53.068;6.572;2023-06-10T22:23:36;18.90;99.90
54832;DHT22;40730;53.068;6.572;2023-06-10T22:26:01;18.50;99.90
54832;DHT22;40730;53.068;6.572;2023-06-10T22:28:27;18.60;99.90
54832;DHT22;40730;53.068;6.572;2023-06-10T22:30:53;18.50;99.90
54832;DHT22;40730;53.068;6.572;2023-06-10T22:33:19;18.50;99.90
54832;DHT22;40730;53.068;6.572;2023-06-10T22:35:44;18.70;99.90
54832;DHT22;40730;53.068;6.572;2023-06-10T22:38:10;18.30;99.90
54832;DHT22;40730;53.068;6.572;2023-06-10T22:40:36;18.20;99.90
54832;DHT22;40730;53.068;6.572;2023-06-10T22:43:02;18.30;99.90
54832;DHT22;40730;53.068;6.572;2023-06-10T22:45:28;18.30;99.90
54832;DHT22;40730;53.068;6.572;2023-06-10T22:47:53;18.20;99.90
54832;DHT22;40730;53.068;6.572;2023-06-10T22:50:19;18.30;99.90
54832;DHT22;40730;53.068;6.572;2023-06-10T22:52:45;18.40;99.90
54832;DHT22;40730;53.068;6.572;2023-06-10T22:55:10;18.10;99.90
54832;DHT22;40730;53.068;6.572;2023-06-10T22:57:36;18.70;99.90
54832;DHT22;40730;53.068;6.572;2023-06-10T23:00:02;18.10;99.90
54832;DHT22;40730;53.068;6.572;2023-06-10T23:02:28;18.10;99.90
54832;DHT22;40730;53.068;6.572;2023-06-10T23:04:53;18.20;99.90
54832;DHT22;40730;53.068;6.572;2023-06-10T23:07:19;18.10;99.90
54832;DHT22;40730;53.068;6.572;2023-06-10T23:09:46;18.00;99.90
54832;DHT22;40730;53.068;6.572;2023-06-10T23:12:13;18.10;99.90
54832;DHT22;40730;53.068;6.572;2023-06-10T23:14:41;17.90;99.90
54832;DHT22;40730;53.068;6.572;2023-06-10T23:17:07;17.90;99.90
54832;DHT22;40730;53.068;6.572;2023-06-10T23:19:33;18.00;99.90
54832;DHT22;40730;53.068;6.572;2023-06-10T23:21:58;18.10;99.90
54832;DHT22;40730;53.068;6.572;2023-06-10T23:24:26;18.20;99.90
54832;DHT22;40730;53.068;6.572;2023-06-10T23:26:55;18.10;99.90
54832;DHT22;40730;53.068;6.572;2023-06-10T23:29:21;18.00;99.90
54832;DHT22;40730;53.068;6.572;2023-06-10T23:31:47;18.10;99.90
54832;DHT22;40730;53.068;6.572;2023-06-10T23:34:13;18.20;99.90
54832;DHT22;40730;53.068;6.572;2023-06-10T23:36:39;18.20;99.90
54832;DHT22;40730;53.068;6.572;2023-06-10T23:39:09;18.20;99.90
54832;DHT22;40730;53.068;6.572;2023-06-10T23:41:35;18.20;99.90
54832;DHT22;40730;53.068;6.572;2023-06-10T23:44:01;18.20;99.90
54832;DHT22;40730;53.068;6.572;2023-06-10T23:46:27;18.20;99.90
54832;DHT22;40730;53.068;6.572;2023-06-10T23:48:57;18.20;99.90
54832;DHT22;40730;53.068;6.572;2023-06-10T23:51:23;18.30;99.90
54832;DHT22;40730;53.068;6.572;2023-06-10T23:53:49;18.30;99.90
54832;DHT22;40730;53.068;6.572;2023-06-10T23:56:15;18.20;99.90
54832;DHT22;40730;53.068;6.572;2023-06-10T23:58:41;18.20;99.90
